sensor_id;sensor_type;location;lat;lon;timestamp;P1;durP1;ratioP1;P2;durP2;ratioP2
38425;SDS011;24210;51.460;6.148;2022-08-19T00:00:32;22.73;;;20.40;;
38425;SDS011;24210;51.460;6.148;2022-08-19T00:02:57;22.33;;;20.13;;
38425;SDS011;24210;51.460;6.148;2022-08-19T00:05:22;22.03;;;19.80;;
38425;SDS011;24210;51.460;6.148;2022-08-19T00:07:48;21.40;;;19.40;;
38425;SDS011;24210;51.460;6.148;2022-08-19T00:10:14;22.80;;;20.40;;
38425;SDS011;24210;51.460;6.148;2022-08-19T00:12:40;25.42;;;22.00;;
38425;SDS011;24210;51.460;6.148;2022-08-19T00:15:06;22.17;;;19.87;;
38425;SDS011;24210;51.460;6.148;2022-08-19T00:17:35;24.20;;;21.83;;
38425;SDS011;24210;51.460;6.148;2022-08-19T00:20:00;22.80;;;20.63;;
38425;SDS011;24210;51.460;6.148;2022-08-19T00:22:26;22.53;;;20.40;;
38425;SDS011;24210;51.460;6.148;2022-08-19T00:24:53;20.13;;;18.20;;
38425;SDS011;24210;51.460;6.148;2022-08-19T00:27:18;24.37;;;20.30;;
38425;SDS011;24210;51.460;6.148;2022-08-19T00:29:44;22.63;;;20.27;;
38425;SDS011;24210;51.460;6.148;2022-08-19T00:32:09;20.53;;;18.70;;
38425;SDS011;24210;51.460;6.148;2022-08-19T00:34:35;21.42;;;19.30;;
38425;SDS011;24210;51.460;6.148;2022-08-19T00:37:00;20.43;;;18.53;;
38425;SDS011;24210;51.460;6.148;2022-08-19T00:39:26;21.43;;;19.43;;
38425;SDS011;24210;51.460;6.148;2022-08-19T00:41:51;20.37;;;18.37;;
38425;SDS011;24210;51.460;6.148;2022-08-19T00:44:18;20.23;;;18.33;;
38425;SDS011;24210;51.460;6.148;2022-08-19T00:46:45;19.13;;;17.33;;
38425;SDS011;24210;51.460;6.148;2022-08-19T00:49:13;20.83;;;18.85;;
38425;SDS011;24210;51.460;6.148;2022-08-19T00:51:40;20.30;;;18.30;;
38425;SDS011;24210;51.460;6.148;2022-08-19T00:54:06;20.38;;;18.52;;
38425;SDS011;24210;51.460;6.148;2022-08-19T00:56:31;20.30;;;18.40;;
38425;SDS011;24210;51.460;6.148;2022-08-19T00:58:57;23.27;;;21.00;;
38425;SDS011;24210;51.460;6.148;2022-08-19T01:01:23;21.40;;;19.20;;
38425;SDS011;24210;51.460;6.148;2022-08-19T01:03:48;20.80;;;18.77;;
38425;SDS011;24210;51.460;6.148;2022-08-19T01:06:13;20.43;;;18.33;;
38425;SDS011;24210;51.460;6.148;2022-08-19T01:08:39;22.42;;;20.35;;
38425;SDS011;24210;51.460;6.148;2022-08-19T01:11:04;21.43;;;19.53;;
38425;SDS011;24210;51.460;6.148;2022-08-19T01:13:30;22.13;;;19.87;;
38425;SDS011;24210;51.460;6.148;2022-08-19T01:16:01;22.50;;;20.10;;
38425;SDS011;24210;51.460;6.148;2022-08-19T01:18:27;21.63;;;18.20;;
38425;SDS011;24210;51.460;6.148;2022-08-19T01:20:54;22.35;;;20.25;;
38425;SDS011;24210;51.460;6.148;2022-08-19T01:23:20;21.85;;;19.63;;
38425;SDS011;24210;51.460;6.148;2022-08-19T01:25:50;24.20;;;21.77;;
38425;SDS011;24210;51.460;6.148;2022-08-19T01:28:20;25.05;;;22.52;;
38425;SDS011;24210;51.460;6.148;2022-08-19T01:30:46;23.52;;;21.33;;
38425;SDS011;24210;51.460;6.148;2022-08-19T01:33:12;23.13;;;20.33;;
38425;SDS011;24210;51.460;6.148;2022-08-19T01:35:37;21.73;;;19.73;;
38425;SDS011;24210;51.460;6.148;2022-08-19T01:38:03;15.83;;;14.37;;
38425;SDS011;24210;51.460;6.148;2022-08-19T01:40:33;19.13;;;17.25;;
38425;SDS011;24210;51.460;6.148;2022-08-19T01:42:58;21.17;;;18.98;;
38425;SDS011;24210;51.460;6.148;2022-08-19T01:45:25;18.05;;;16.40;;
38425;SDS011;24210;51.460;6.148;2022-08-19T01:47:51;19.02;;;17.23;;
38425;SDS011;24210;51.460;6.148;2022-08-19T01:50:17;19.75;;;17.88;;
38425;SDS011;24210;51.460;6.148;2022-08-19T01:52:43;20.87;;;18.90;;
38425;SDS011;24210;51.460;6.148;2022-08-19T01:55:13;21.05;;;19.00;;
38425;SDS011;24210;51.460;6.148;2022-08-19T01:57:38;22.25;;;20.05;;
38425;SDS011;24210;51.460;6.148;2022-08-19T02:00:05;21.85;;;19.63;;
38425;SDS011;24210;51.460;6.148;2022-08-19T02:02:31;20.58;;;18.52;;
38425;SDS011;24210;51.460;6.148;2022-08-19T02:04:56;21.70;;;19.50;;
38425;SDS011;24210;51.460;6.148;2022-08-19T02:07:22;23.60;;;21.13;;
38425;SDS011;24210;51.460;6.148;2022-08-19T02:09:47;23.40;;;21.03;;
38425;SDS011;24210;51.460;6.148;2022-08-19T02:12:13;24.33;;;20.27;;
38425;SDS011;24210;51.460;6.148;2022-08-19T02:14:38;23.37;;;20.87;;
38425;SDS011;24210;51.460;6.148;2022-08-19T02:17:03;22.33;;;20.27;;
38425;SDS011;24210;51.460;6.148;2022-08-19T02:19:29;22.83;;;20.43;;
38425;SDS011;24210;51.460;6.148;2022-08-19T02:21:56;21.70;;;19.70;;
38425;SDS011;24210;51.460;6.148;2022-08-19T02:24:21;21.37;;;19.40;;
38425;SDS011;24210;51.460;6.148;2022-08-19T02:26:47;21.93;;;19.70;;
38425;SDS011;24210;51.460;6.148;2022-08-19T02:29:12;21.27;;;19.13;;
38425;SDS011;24210;51.460;6.148;2022-08-19T02:31:37;20.80;;;18.63;;
38425;SDS011;24210;51.460;6.148;2022-08-19T02:34:02;22.53;;;20.17;;
38425;SDS011;24210;51.460;6.148;2022-08-19T02:36:28;23.50;;;20.33;;
38425;SDS011;24210;51.460;6.148;2022-08-19T02:38:53;24.27;;;19.90;;
38425;SDS011;24210;51.460;6.148;2022-08-19T02:41:21;24.10;;;20.50;;
38425;SDS011;24210;51.460;6.148;2022-08-19T02:43:47;24.38;;;21.98;;
38425;SDS011;24210;51.460;6.148;2022-08-19T02:46:13;27.80;;;24.95;;
38425;SDS011;24210;51.460;6.148;2022-08-19T02:48:39;25.60;;;22.92;;
38425;SDS011;24210;51.460;6.148;2022-08-19T02:51:04;26.77;;;24.00;;
38425;SDS011;24210;51.460;6.148;2022-08-19T02:53:30;28.47;;;25.40;;
38425;SDS011;24210;51.460;6.148;2022-08-19T02:55:55;23.07;;;20.63;;
38425;SDS011;24210;51.460;6.148;2022-08-19T02:58:21;21.47;;;19.30;;
38425;SDS011;24210;51.460;6.148;2022-08-19T03:00:48;20.38;;;18.05;;
38425;SDS011;24210;51.460;6.148;2022-08-19T03:03:14;22.85;;;20.48;;
38425;SDS011;24210;51.460;6.148;2022-08-19T03:05:39;24.00;;;21.60;;
38425;SDS011;24210;51.460;6.148;2022-08-19T03:08:05;25.97;;;21.97;;
38425;SDS011;24210;51.460;6.148;2022-08-19T03:10:30;29.60;;;26.40;;
38425;SDS011;24210;51.460;6.148;2022-08-19T03:12:56;30.73;;;26.73;;
38425;SDS011;24210;51.460;6.148;2022-08-19T03:15:21;34.10;;;30.43;;
38425;SDS011;24210;51.460;6.148;2022-08-19T03:17:46;33.53;;;30.00;;
38425;SDS011;24210;51.460;6.148;2022-08-19T03:20:11;26.97;;;24.23;;
38425;SDS011;24210;51.460;6.148;2022-08-19T03:22:37;24.60;;;22.10;;
38425;SDS011;24210;51.460;6.148;2022-08-19T03:25:02;27.57;;;23.20;;
38425;SDS011;24210;51.460;6.148;2022-08-19T03:27:27;26.30;;;23.53;;
38425;SDS011;24210;51.460;6.148;2022-08-19T03:29:53;26.10;;;23.45;;
38425;SDS011;24210;51.460;6.148;2022-08-19T03:32:19;28.87;;;25.63;;
38425;SDS011;24210;51.460;6.148;2022-08-19T03:34:44;28.67;;;25.57;;
38425;SDS011;24210;51.460;6.148;2022-08-19T03:37:10;28.27;;;25.47;;
38425;SDS011;24210;51.460;6.148;2022-08-19T03:39:38;28.90;;;25.85;;
38425;SDS011;24210;51.460;6.148;2022-08-19T03:42:03;33.10;;;27.52;;
38425;SDS011;24210;51.460;6.148;2022-08-19T03:44:29;26.40;;;23.47;;
38425;SDS011;24210;51.460;6.148;2022-08-19T03:46:55;29.03;;;26.03;;
38425;SDS011;24210;51.460;6.148;2022-08-19T03:49:22;29.98;;;26.83;;
38425;SDS011;24210;51.460;6.148;2022-08-19T03:51:48;30.48;;;27.17;;
38425;SDS011;24210;51.460;6.148;2022-08-19T03:54:15;32.78;;;29.27;;
38425;SDS011;24210;51.460;6.148;2022-08-19T03:56:41;31.95;;;27.88;;
38425;SDS011;24210;51.460;6.148;2022-08-19T03:59:07;32.63;;;29.25;;
38425;SDS011;24210;51.460;6.148;2022-08-19T04:03:58;33.97;;;30.30;;
38425;SDS011;24210;51.460;6.148;2022-08-19T04:06:28;32.83;;;28.92;;
38425;SDS011;24210;51.460;6.148;2022-08-19T04:08:55;30.30;;;27.10;;
38425;SDS011;24210;51.460;6.148;2022-08-19T04:11:21;29.30;;;26.20;;
38425;SDS011;24210;51.460;6.148;2022-08-19T04:13:47;30.65;;;27.35;;
38425;SDS011;24210;51.460;6.148;2022-08-19T04:16:13;31.23;;;27.97;;
38425;SDS011;24210;51.460;6.148;2022-08-19T04:18:39;32.70;;;29.17;;
38425;SDS011;24210;51.460;6.148;2022-08-19T04:21:05;35.97;;;31.73;;
38425;SDS011;24210;51.460;6.148;2022-08-19T04:23:31;33.63;;;30.13;;
38425;SDS011;24210;51.460;6.148;2022-08-19T04:25:56;34.83;;;29.07;;
38425;SDS011;24210;51.460;6.148;2022-08-19T04:28:22;37.50;;;33.33;;
38425;SDS011;24210;51.460;6.148;2022-08-19T04:30:49;38.40;;;34.08;;
38425;SDS011;24210;51.460;6.148;2022-08-19T04:33:15;42.00;;;33.67;;
38425;SDS011;24210;51.460;6.148;2022-08-19T04:35:41;40.40;;;31.50;;
38425;SDS011;24210;51.460;6.148;2022-08-19T04:38:07;38.08;;;32.25;;
38425;SDS011;24210;51.460;6.148;2022-08-19T04:40:33;38.47;;;31.65;;
38425;SDS011;24210;51.460;6.148;2022-08-19T04:43:17;39.50;;;33.30;;
38425;SDS011;24210;51.460;6.148;2022-08-19T04:45:43;43.13;;;33.17;;
38425;SDS011;24210;51.460;6.148;2022-08-19T04:48:08;40.75;;;32.78;;
38425;SDS011;24210;51.460;6.148;2022-08-19T04:50:34;40.25;;;32.95;;
38425;SDS011;24210;51.460;6.148;2022-08-19T04:53:00;38.70;;;31.00;;
38425;SDS011;24210;51.460;6.148;2022-08-19T04:55:25;34.77;;;29.90;;
38425;SDS011;24210;51.460;6.148;2022-08-19T04:57:50;40.63;;;31.97;;
38425;SDS011;24210;51.460;6.148;2022-08-19T05:00:16;39.40;;;34.43;;
38425;SDS011;24210;51.460;6.148;2022-08-19T05:02:41;40.60;;;33.00;;
38425;SDS011;24210;51.460;6.148;2022-08-19T05:05:06;40.70;;;33.47;;
38425;SDS011;24210;51.460;6.148;2022-08-19T05:07:32;43.17;;;32.83;;
38425;SDS011;24210;51.460;6.148;2022-08-19T05:09:57;39.87;;;34.37;;
38425;SDS011;24210;51.460;6.148;2022-08-19T05:12:23;37.20;;;29.97;;
38425;SDS011;24210;51.460;6.148;2022-08-19T05:14:48;40.92;;;31.65;;
38425;SDS011;24210;51.460;6.148;2022-08-19T05:17:14;38.37;;;31.27;;
38425;SDS011;24210;51.460;6.148;2022-08-19T05:19:39;38.63;;;31.13;;
38425;SDS011;24210;51.460;6.148;2022-08-19T05:22:23;41.53;;;31.52;;
38425;SDS011;24210;51.460;6.148;2022-08-19T05:27:52;42.45;;;31.95;;
38425;SDS011;24210;51.460;6.148;2022-08-19T05:30:17;40.90;;;33.27;;
38425;SDS011;24210;51.460;6.148;2022-08-19T05:32:42;41.70;;;33.07;;
38425;SDS011;24210;51.460;6.148;2022-08-19T05:35:08;40.27;;;31.13;;
38425;SDS011;24210;51.460;6.148;2022-08-19T05:37:34;38.90;;;28.77;;
38425;SDS011;24210;51.460;6.148;2022-08-19T05:39:59;40.57;;;30.53;;
38425;SDS011;24210;51.460;6.148;2022-08-19T05:42:24;34.10;;;28.37;;
38425;SDS011;24210;51.460;6.148;2022-08-19T05:44:51;36.15;;;28.25;;
38425;SDS011;24210;51.460;6.148;2022-08-19T05:47:16;37.33;;;28.63;;
38425;SDS011;24210;51.460;6.148;2022-08-19T05:49:43;35.30;;;30.05;;
38425;SDS011;24210;51.460;6.148;2022-08-19T05:52:10;40.17;;;31.40;;
38425;SDS011;24210;51.460;6.148;2022-08-19T05:54:37;35.95;;;29.15;;
38425;SDS011;24210;51.460;6.148;2022-08-19T05:57:04;37.17;;;30.25;;
38425;SDS011;24210;51.460;6.148;2022-08-19T05:59:29;35.23;;;28.63;;
38425;SDS011;24210;51.460;6.148;2022-08-19T06:01:54;40.90;;;31.80;;
38425;SDS011;24210;51.460;6.148;2022-08-19T06:04:20;34.67;;;29.00;;
38425;SDS011;24210;51.460;6.148;2022-08-19T06:06:46;40.13;;;32.97;;
38425;SDS011;24210;51.460;6.148;2022-08-19T06:09:11;40.47;;;29.27;;
38425;SDS011;24210;51.460;6.148;2022-08-19T06:11:41;35.97;;;26.67;;
38425;SDS011;24210;51.460;6.148;2022-08-19T06:14:09;39.47;;;32.25;;
38425;SDS011;24210;51.460;6.148;2022-08-19T06:16:35;35.03;;;27.50;;
38425;SDS011;24210;51.460;6.148;2022-08-19T06:19:03;42.20;;;33.17;;
38425;SDS011;24210;51.460;6.148;2022-08-19T06:23:55;35.93;;;29.23;;
38425;SDS011;24210;51.460;6.148;2022-08-19T06:26:21;45.83;;;31.60;;
38425;SDS011;24210;51.460;6.148;2022-08-19T06:31:15;42.53;;;32.53;;
38425;SDS011;24210;51.460;6.148;2022-08-19T06:33:41;41.17;;;32.28;;
38425;SDS011;24210;51.460;6.148;2022-08-19T06:36:07;51.67;;;42.00;;
38425;SDS011;24210;51.460;6.148;2022-08-19T06:38:32;38.57;;;30.67;;
38425;SDS011;24210;51.460;6.148;2022-08-19T06:41:04;51.38;;;37.15;;
38425;SDS011;24210;51.460;6.148;2022-08-19T06:43:29;37.95;;;27.83;;
38425;SDS011;24210;51.460;6.148;2022-08-19T06:45:54;42.83;;;30.43;;
38425;SDS011;24210;51.460;6.148;2022-08-19T06:48:19;49.70;;;34.03;;
38425;SDS011;24210;51.460;6.148;2022-08-19T06:50:45;56.77;;;35.00;;
38425;SDS011;24210;51.460;6.148;2022-08-19T06:53:10;49.77;;;34.37;;
38425;SDS011;24210;51.460;6.148;2022-08-19T06:55:35;48.30;;;33.07;;
38425;SDS011;24210;51.460;6.148;2022-08-19T06:58:02;48.35;;;33.47;;
38425;SDS011;24210;51.460;6.148;2022-08-19T07:00:28;45.85;;;29.02;;
38425;SDS011;24210;51.460;6.148;2022-08-19T07:02:53;54.30;;;41.57;;
38425;SDS011;24210;51.460;6.148;2022-08-19T07:05:18;53.70;;;38.37;;
38425;SDS011;24210;51.460;6.148;2022-08-19T07:07:44;52.20;;;34.87;;
38425;SDS011;24210;51.460;6.148;2022-08-19T07:10:09;50.10;;;36.47;;
38425;SDS011;24210;51.460;6.148;2022-08-19T07:12:34;60.80;;;41.37;;
38425;SDS011;24210;51.460;6.148;2022-08-19T07:15:00;56.33;;;38.60;;
38425;SDS011;24210;51.460;6.148;2022-08-19T07:17:25;56.60;;;36.20;;
38425;SDS011;24210;51.460;6.148;2022-08-19T07:19:50;63.40;;;45.23;;
38425;SDS011;24210;51.460;6.148;2022-08-19T07:22:16;60.03;;;39.57;;
38425;SDS011;24210;51.460;6.148;2022-08-19T07:24:42;56.83;;;39.38;;
38425;SDS011;24210;51.460;6.148;2022-08-19T07:27:07;53.80;;;34.43;;
38425;SDS011;24210;51.460;6.148;2022-08-19T07:29:35;48.47;;;30.60;;
38425;SDS011;24210;51.460;6.148;2022-08-19T07:34:27;62.30;;;42.85;;
38425;SDS011;24210;51.460;6.148;2022-08-19T07:36:52;59.03;;;44.30;;
38425;SDS011;24210;51.460;6.148;2022-08-19T07:39:23;61.35;;;41.78;;
38425;SDS011;24210;51.460;6.148;2022-08-19T07:41:48;54.92;;;39.30;;
38425;SDS011;24210;51.460;6.148;2022-08-19T07:46:42;61.47;;;41.80;;
38425;SDS011;24210;51.460;6.148;2022-08-19T07:49:09;55.72;;;37.05;;
38425;SDS011;24210;51.460;6.148;2022-08-19T07:51:39;50.92;;;29.40;;
38425;SDS011;24210;51.460;6.148;2022-08-19T07:54:04;58.90;;;36.77;;
38425;SDS011;24210;51.460;6.148;2022-08-19T07:56:30;56.27;;;39.23;;
38425;SDS011;24210;51.460;6.148;2022-08-19T07:58:55;64.13;;;43.40;;
38425;SDS011;24210;51.460;6.148;2022-08-19T08:01:24;47.97;;;33.23;;
38425;SDS011;24210;51.460;6.148;2022-08-19T08:03:51;52.75;;;34.22;;
38425;SDS011;24210;51.460;6.148;2022-08-19T08:06:35;47.60;;;32.90;;
38425;SDS011;24210;51.460;6.148;2022-08-19T08:09:22;51.83;;;35.20;;
38425;SDS011;24210;51.460;6.148;2022-08-19T08:14:17;50.63;;;33.75;;
38425;SDS011;24210;51.460;6.148;2022-08-19T08:16:43;50.50;;;34.65;;
38425;SDS011;24210;51.460;6.148;2022-08-19T08:19:10;54.55;;;35.22;;
38425;SDS011;24210;51.460;6.148;2022-08-19T08:21:35;53.40;;;38.10;;
38425;SDS011;24210;51.460;6.148;2022-08-19T08:24:00;50.90;;;30.37;;
38425;SDS011;24210;51.460;6.148;2022-08-19T08:26:26;44.20;;;30.47;;
38425;SDS011;24210;51.460;6.148;2022-08-19T08:28:51;44.67;;;31.20;;
38425;SDS011;24210;51.460;6.148;2022-08-19T08:31:17;51.10;;;31.03;;
38425;SDS011;24210;51.460;6.148;2022-08-19T08:33:44;47.95;;;33.47;;
38425;SDS011;24210;51.460;6.148;2022-08-19T08:36:09;48.30;;;31.93;;
38425;SDS011;24210;51.460;6.148;2022-08-19T08:38:36;45.58;;;30.17;;
38425;SDS011;24210;51.460;6.148;2022-08-19T08:41:04;47.67;;;30.67;;
38425;SDS011;24210;51.460;6.148;2022-08-19T08:43:38;50.08;;;30.85;;
38425;SDS011;24210;51.460;6.148;2022-08-19T08:50:59;44.43;;;28.40;;
38425;SDS011;24210;51.460;6.148;2022-08-19T08:53:27;44.33;;;35.10;;
38425;SDS011;24210;51.460;6.148;2022-08-19T08:55:52;40.27;;;26.77;;
38425;SDS011;24210;51.460;6.148;2022-08-19T08:58:25;40.10;;;29.33;;
38425;SDS011;24210;51.460;6.148;2022-08-19T09:00:51;41.15;;;29.02;;
38425;SDS011;24210;51.460;6.148;2022-08-19T09:03:18;39.30;;;29.23;;
38425;SDS011;24210;51.460;6.148;2022-08-19T09:10:53;25.50;;;16.45;;
38425;SDS011;24210;51.460;6.148;2022-08-19T09:16:02;28.38;;;19.33;;
38425;SDS011;24210;51.460;6.148;2022-08-19T09:18:43;31.40;;;19.15;;
38425;SDS011;24210;51.460;6.148;2022-08-19T09:21:09;26.35;;;18.40;;
38425;SDS011;24210;51.460;6.148;2022-08-19T09:23:35;28.42;;;19.08;;
38425;SDS011;24210;51.460;6.148;2022-08-19T09:26:01;31.75;;;19.40;;
38425;SDS011;24210;51.460;6.148;2022-08-19T09:28:26;23.63;;;18.37;;
38425;SDS011;24210;51.460;6.148;2022-08-19T09:30:52;25.48;;;14.95;;
38425;SDS011;24210;51.460;6.148;2022-08-19T09:33:17;24.97;;;15.23;;
38425;SDS011;24210;51.460;6.148;2022-08-19T09:35:43;24.50;;;15.40;;
38425;SDS011;24210;51.460;6.148;2022-08-19T09:38:08;21.93;;;14.60;;
38425;SDS011;24210;51.460;6.148;2022-08-19T09:40:33;23.73;;;16.77;;
38425;SDS011;24210;51.460;6.148;2022-08-19T09:42:58;22.77;;;15.00;;
38425;SDS011;24210;51.460;6.148;2022-08-19T09:45:27;25.85;;;17.48;;
38425;SDS011;24210;51.460;6.148;2022-08-19T09:47:52;23.13;;;15.60;;
38425;SDS011;24210;51.460;6.148;2022-08-19T09:50:18;28.97;;;19.40;;
38425;SDS011;24210;51.460;6.148;2022-08-19T09:52:43;20.57;;;14.43;;
38425;SDS011;24210;51.460;6.148;2022-08-19T09:55:10;25.33;;;16.53;;
38425;SDS011;24210;51.460;6.148;2022-08-19T09:57:36;33.33;;;21.63;;
38425;SDS011;24210;51.460;6.148;2022-08-19T10:00:03;25.20;;;16.17;;
38425;SDS011;24210;51.460;6.148;2022-08-19T10:02:28;29.50;;;19.48;;
38425;SDS011;24210;51.460;6.148;2022-08-19T10:04:54;25.07;;;16.57;;
38425;SDS011;24210;51.460;6.148;2022-08-19T10:07:38;16.98;;;11.57;;
38425;SDS011;24210;51.460;6.148;2022-08-19T10:10:04;23.30;;;13.03;;
38425;SDS011;24210;51.460;6.148;2022-08-19T10:12:31;26.55;;;16.52;;
38425;SDS011;24210;51.460;6.148;2022-08-19T10:14:56;22.90;;;14.70;;
38425;SDS011;24210;51.460;6.148;2022-08-19T10:17:21;17.60;;;12.53;;
38425;SDS011;24210;51.460;6.148;2022-08-19T10:19:48;23.20;;;13.00;;
38425;SDS011;24210;51.460;6.148;2022-08-19T10:22:13;20.30;;;11.35;;
38425;SDS011;24210;51.460;6.148;2022-08-19T10:24:39;16.58;;;11.02;;
38425;SDS011;24210;51.460;6.148;2022-08-19T10:27:05;20.33;;;13.47;;
38425;SDS011;24210;51.460;6.148;2022-08-19T10:29:31;20.23;;;14.20;;
38425;SDS011;24210;51.460;6.148;2022-08-19T10:31:57;18.40;;;14.68;;
38425;SDS011;24210;51.460;6.148;2022-08-19T10:36:48;14.60;;;9.40;;
38425;SDS011;24210;51.460;6.148;2022-08-19T10:39:13;11.53;;;4.90;;
38425;SDS011;24210;51.460;6.148;2022-08-19T10:41:39;16.63;;;9.77;;
38425;SDS011;24210;51.460;6.148;2022-08-19T10:44:06;11.68;;;8.55;;
38425;SDS011;24210;51.460;6.148;2022-08-19T10:51:22;5.47;;;4.15;;
38425;SDS011;24210;51.460;6.148;2022-08-19T10:54:06;9.93;;;6.45;;
38425;SDS011;24210;51.460;6.148;2022-08-19T10:56:32;4.47;;;3.33;;
38425;SDS011;24210;51.460;6.148;2022-08-19T10:59:16;8.38;;;5.75;;
38425;SDS011;24210;51.460;6.148;2022-08-19T11:01:43;9.93;;;7.63;;
38425;SDS011;24210;51.460;6.148;2022-08-19T11:04:08;8.02;;;6.38;;
38425;SDS011;24210;51.460;6.148;2022-08-19T11:06:36;11.40;;;7.13;;
38425;SDS011;24210;51.460;6.148;2022-08-19T11:09:03;9.80;;;6.65;;
38425;SDS011;24210;51.460;6.148;2022-08-19T11:11:29;7.80;;;5.00;;
38425;SDS011;24210;51.460;6.148;2022-08-19T11:13:55;13.63;;;8.63;;
38425;SDS011;24210;51.460;6.148;2022-08-19T11:16:21;10.43;;;8.23;;
38425;SDS011;24210;51.460;6.148;2022-08-19T11:18:48;15.13;;;9.05;;
38425;SDS011;24210;51.460;6.148;2022-08-19T11:21:15;10.68;;;8.13;;
38425;SDS011;24210;51.460;6.148;2022-08-19T11:23:42;7.28;;;4.70;;
38425;SDS011;24210;51.460;6.148;2022-08-19T11:26:08;8.40;;;6.15;;
38425;SDS011;24210;51.460;6.148;2022-08-19T11:28:34;7.78;;;6.25;;
38425;SDS011;24210;51.460;6.148;2022-08-19T11:30:59;11.07;;;10.07;;
38425;SDS011;24210;51.460;6.148;2022-08-19T11:33:24;14.17;;;11.57;;
38425;SDS011;24210;51.460;6.148;2022-08-19T11:38:16;12.77;;;11.43;;
38425;SDS011;24210;51.460;6.148;2022-08-19T11:40:41;12.00;;;10.27;;
38425;SDS011;24210;51.460;6.148;2022-08-19T11:43:07;14.33;;;11.63;;
38425;SDS011;24210;51.460;6.148;2022-08-19T11:45:34;14.88;;;12.60;;
38425;SDS011;24210;51.460;6.148;2022-08-19T11:47:59;16.47;;;14.63;;
38425;SDS011;24210;51.460;6.148;2022-08-19T11:50:24;12.97;;;11.67;;
38425;SDS011;24210;51.460;6.148;2022-08-19T11:52:50;13.27;;;11.87;;
38425;SDS011;24210;51.460;6.148;2022-08-19T11:55:15;16.50;;;10.85;;
38425;SDS011;24210;51.460;6.148;2022-08-19T11:57:41;11.17;;;8.53;;
38425;SDS011;24210;51.460;6.148;2022-08-19T12:00:08;14.23;;;9.98;;
38425;SDS011;24210;51.460;6.148;2022-08-19T12:02:36;10.77;;;8.80;;
38425;SDS011;24210;51.460;6.148;2022-08-19T12:05:01;11.20;;;10.03;;
38425;SDS011;24210;51.460;6.148;2022-08-19T12:07:27;13.15;;;11.70;;
38425;SDS011;24210;51.460;6.148;2022-08-19T12:09:54;15.50;;;9.82;;
38425;SDS011;24210;51.460;6.148;2022-08-19T12:12:19;13.43;;;9.80;;
38425;SDS011;24210;51.460;6.148;2022-08-19T12:14:44;13.40;;;10.82;;
38425;SDS011;24210;51.460;6.148;2022-08-19T12:19:37;12.48;;;8.77;;
38425;SDS011;24210;51.460;6.148;2022-08-19T12:22:02;12.60;;;9.05;;
38425;SDS011;24210;51.460;6.148;2022-08-19T12:24:30;14.30;;;9.75;;
38425;SDS011;24210;51.460;6.148;2022-08-19T12:26:55;10.07;;;8.90;;
38425;SDS011;24210;51.460;6.148;2022-08-19T12:29:21;11.77;;;8.32;;
38425;SDS011;24210;51.460;6.148;2022-08-19T12:31:53;11.98;;;8.88;;
38425;SDS011;24210;51.460;6.148;2022-08-19T12:34:19;14.15;;;7.90;;
38425;SDS011;24210;51.460;6.148;2022-08-19T12:36:45;11.80;;;7.20;;
38425;SDS011;24210;51.460;6.148;2022-08-19T12:39:10;9.43;;;8.00;;
38425;SDS011;24210;51.460;6.148;2022-08-19T12:41:35;9.30;;;7.10;;
38425;SDS011;24210;51.460;6.148;2022-08-19T12:44:02;10.13;;;7.60;;
38425;SDS011;24210;51.460;6.148;2022-08-19T12:46:27;7.27;;;5.60;;
38425;SDS011;24210;51.460;6.148;2022-08-19T12:48:52;7.57;;;6.23;;
38425;SDS011;24210;51.460;6.148;2022-08-19T12:51:19;7.00;;;5.97;;
38425;SDS011;24210;51.460;6.148;2022-08-19T12:53:46;11.57;;;7.67;;
38425;SDS011;24210;51.460;6.148;2022-08-19T12:56:11;9.40;;;7.85;;
38425;SDS011;24210;51.460;6.148;2022-08-19T12:58:39;12.40;;;8.90;;
38425;SDS011;24210;51.460;6.148;2022-08-19T13:01:14;15.30;;;9.30;;
38425;SDS011;24210;51.460;6.148;2022-08-19T13:03:39;15.10;;;9.52;;
38425;SDS011;24210;51.460;6.148;2022-08-19T13:06:04;10.97;;;7.30;;
38425;SDS011;24210;51.460;6.148;2022-08-19T13:08:30;11.70;;;7.47;;
38425;SDS011;24210;51.460;6.148;2022-08-19T13:10:55;5.30;;;2.77;;
38425;SDS011;24210;51.460;6.148;2022-08-19T13:13:20;12.17;;;7.13;;
38425;SDS011;24210;51.460;6.148;2022-08-19T13:15:46;10.20;;;7.57;;
38425;SDS011;24210;51.460;6.148;2022-08-19T13:18:13;12.23;;;6.68;;
38425;SDS011;24210;51.460;6.148;2022-08-19T13:20:39;13.82;;;9.13;;
38425;SDS011;24210;51.460;6.148;2022-08-19T13:23:08;9.02;;;6.25;;
38425;SDS011;24210;51.460;6.148;2022-08-19T13:25:33;9.48;;;5.93;;
38425;SDS011;24210;51.460;6.148;2022-08-19T13:27:59;13.63;;;8.03;;
38425;SDS011;24210;51.460;6.148;2022-08-19T13:30:25;8.02;;;6.20;;
38425;SDS011;24210;51.460;6.148;2022-08-19T13:33:08;10.00;;;6.03;;
38425;SDS011;24210;51.460;6.148;2022-08-19T13:35:49;14.68;;;8.75;;
38425;SDS011;24210;51.460;6.148;2022-08-19T13:38:18;15.88;;;9.00;;
38425;SDS011;24210;51.460;6.148;2022-08-19T13:40:45;16.17;;;11.05;;
38425;SDS011;24210;51.460;6.148;2022-08-19T13:43:11;17.02;;;12.23;;
38425;SDS011;24210;51.460;6.148;2022-08-19T13:45:36;20.17;;;12.70;;
38425;SDS011;24210;51.460;6.148;2022-08-19T13:48:03;21.23;;;11.43;;
38425;SDS011;24210;51.460;6.148;2022-08-19T13:50:33;21.85;;;14.48;;
38425;SDS011;24210;51.460;6.148;2022-08-19T13:53:00;18.48;;;12.70;;
38425;SDS011;24210;51.460;6.148;2022-08-19T13:55:25;21.48;;;14.40;;
38425;SDS011;24210;51.460;6.148;2022-08-19T13:57:55;14.82;;;11.43;;
38425;SDS011;24210;51.460;6.148;2022-08-19T14:00:21;16.98;;;12.57;;
38425;SDS011;24210;51.460;6.148;2022-08-19T14:02:47;18.13;;;13.07;;
38425;SDS011;24210;51.460;6.148;2022-08-19T14:05:13;16.90;;;13.30;;
38425;SDS011;24210;51.460;6.148;2022-08-19T14:07:39;18.30;;;16.23;;
38425;SDS011;24210;51.460;6.148;2022-08-19T14:10:05;15.57;;;11.53;;
38425;SDS011;24210;51.460;6.148;2022-08-19T14:12:31;21.27;;;15.63;;
38425;SDS011;24210;51.460;6.148;2022-08-19T14:14:57;20.48;;;12.80;;
38425;SDS011;24210;51.460;6.148;2022-08-19T14:17:22;18.50;;;12.40;;
38425;SDS011;24210;51.460;6.148;2022-08-19T14:19:47;19.63;;;13.83;;
38425;SDS011;24210;51.460;6.148;2022-08-19T14:22:13;15.37;;;12.10;;
38425;SDS011;24210;51.460;6.148;2022-08-19T14:24:38;16.47;;;13.43;;
38425;SDS011;24210;51.460;6.148;2022-08-19T14:29:29;21.95;;;12.60;;
38425;SDS011;24210;51.460;6.148;2022-08-19T14:31:55;16.70;;;13.60;;
38425;SDS011;24210;51.460;6.148;2022-08-19T14:34:24;19.15;;;13.25;;
38425;SDS011;24210;51.460;6.148;2022-08-19T14:36:50;15.40;;;13.50;;
38425;SDS011;24210;51.460;6.148;2022-08-19T14:39:15;14.87;;;12.20;;
38425;SDS011;24210;51.460;6.148;2022-08-19T14:41:41;16.47;;;12.13;;
38425;SDS011;24210;51.460;6.148;2022-08-19T14:44:10;18.05;;;13.60;;
38425;SDS011;24210;51.460;6.148;2022-08-19T14:46:37;15.48;;;12.38;;
38425;SDS011;24210;51.460;6.148;2022-08-19T14:49:03;16.70;;;13.00;;
38425;SDS011;24210;51.460;6.148;2022-08-19T14:51:28;21.17;;;13.80;;
38425;SDS011;24210;51.460;6.148;2022-08-19T14:53:53;18.10;;;12.40;;
38425;SDS011;24210;51.460;6.148;2022-08-19T14:56:20;15.40;;;12.67;;
38425;SDS011;24210;51.460;6.148;2022-08-19T14:58:45;18.90;;;14.43;;
38425;SDS011;24210;51.460;6.148;2022-08-19T15:01:12;20.50;;;14.77;;
38425;SDS011;24210;51.460;6.148;2022-08-19T15:03:37;16.38;;;13.45;;